Welcome to Northern Hawkes Bay. New Zealand.
PWS Header
      nz Flag



Hit Counter


W3C Valid W3C Valid logo


    Wairoa

Select any of the Stations below to visit their websites.










Historic Data from Weather Underground
Select the location of interest below. Wairoa is the default. Please have patience, this Data is slow to load in.
Northern Hawkes Bay Historical Data
 
Daily Summary for August 18, 2017 Units:  Metric    English   Both
« Previous Day
Next Day »
Daily Weekly Monthly Yearly Custom
  Current: High: Low: Average:
Temperature: 9.5 °C 20.1 °C 7.0 °C 12.6 °C
Dew Point: 6.9 °C 11.6 °C 4.3 °C 7.8 °C
Humidity: 84% 97% 36% 75%
Wind Speed: 5.0km/h 13.4km/h 0.0km/h 4.9km/h
Wind Gust: 8.7km/h 20.9km/h - -
WindNNW - - SW
Pressure: 996.5 hPa 1006.0 hPa 996.2 hPa -
Precipitation: 0.0 mm      
Historical Graphs
 
 
Tabular Data for August 18, 2017
Time Temperature Dew Point Pressure Wind Wind Speed Wind Gust Humidity Rainfall Rate (Hourly) solar
00:04 13.8 °C 10.6 °C 1006.0 hPa North 6.1 km/h 18.3 km/h 81% 0.0 mm 0 W/m2
00:09 13.8 °C 10.4 °C 1006.0 hPa NNW 6.1 km/h 18.3 km/h 80% 0.0 mm 0 W/m2
00:14 13.9 °C 10.3 °C 1006.0 hPa NNW 9.7 km/h 14.8 km/h 79% 0.0 mm 0 W/m2
00:19 14.1 °C 10.1 °C 1005.6 hPa North 11.1 km/h 20.9 km/h 77% 0.0 mm 0 W/m2
00:24 14.2 °C 10.1 °C 1005.6 hPa North 6.1 km/h 20.9 km/h 76% 0.0 mm 0 W/m2
00:29 14.1 °C 9.9 °C 1005.6 hPa NNW 5.0 km/h 20.9 km/h 76% 0.0 mm 0 W/m2
00:34 13.9 °C 9.9 °C 1005.6 hPa North 7.2 km/h 14.8 km/h 77% 0.0 mm 0 W/m2
00:39 13.8 °C 9.8 °C 1005.6 hPa North 7.2 km/h 12.2 km/h 77% 0.0 mm 0 W/m2
00:44 13.6 °C 9.8 °C 1005.6 hPa North 5.0 km/h 12.2 km/h 78% 0.0 mm 0 W/m2
00:49 13.6 °C 9.8 °C 1005.6 hPa NNW 3.5 km/h 11.1 km/h 78% 0.0 mm 0 W/m2
00:54 13.3 °C 9.6 °C 1005.6 hPa NW 3.5 km/h 9.7 km/h 78% 0.0 mm 0 W/m2
00:59 13.3 °C 9.7 °C 1005.6 hPa NW 3.5 km/h 9.7 km/h 79% 0.0 mm 0 W/m2
01:04 13.0 °C 9.4 °C 1005.6 hPa NW 3.5 km/h 8.7 km/h 79% 0.0 mm 0 W/m2
01:09 12.7 °C 9.5 °C 1005.3 hPa NW 3.5 km/h 6.1 km/h 81% 0.0 mm 0 W/m2
01:14 12.3 °C 9.1 °C 1005.3 hPa NNW 3.5 km/h 8.7 km/h 81% 0.0 mm 0 W/m2
01:19 12.1 °C 9.1 °C 1005.3 hPa Calm   8.7 km/h 82% 0.0 mm 0 W/m2
01:24 11.8 °C 9.0 °C 1005.3 hPa Calm   6.1 km/h 83% 0.0 mm 0 W/m2
01:29 11.5 °C 8.9 °C 1005.3 hPa Calm   3.5 km/h 84% 0.0 mm 0 W/m2
01:34 11.4 °C 8.9 °C 1005.3 hPa SW 2.6 km/h 5.0 km/h 85% 0.0 mm 0 W/m2
01:39 11.5 °C 9.2 °C 1005.0 hPa WSW 3.5 km/h 7.2 km/h 86% 0.0 mm 0 W/m2
01:44 11.6 °C 9.3 °C 1005.0 hPa WNW 5.0 km/h 7.2 km/h 86% 0.0 mm 0 W/m2
01:49 11.4 °C 8.9 °C 1005.0 hPa NW 7.2 km/h 11.1 km/h 85% 0.0 mm 0 W/m2
01:54 11.4 °C 9.2 °C 1004.6 hPa NW 8.7 km/h 11.1 km/h 86% 0.0 mm 0 W/m2
01:59 11.5 °C 9.1 °C 1004.6 hPa NNW 8.7 km/h 14.8 km/h 85% 0.0 mm 0 W/m2
02:04 11.6 °C 9.0 °C 1004.6 hPa North 9.7 km/h 14.8 km/h 84% 0.0 mm 0 W/m2
02:09 11.8 °C 9.0 °C 1004.6 hPa North 2.6 km/h 14.8 km/h 83% 0.0 mm 0 W/m2
02:14 11.8 °C 8.8 °C 1004.6 hPa Calm   12.2 km/h 82% 0.0 mm 0 W/m2
02:19 11.6 °C 8.6 °C 1004.6 hPa Calm   6.1 km/h 82% 0.0 mm 0 W/m2
02:24 11.2 °C 8.2 °C 1004.6 hPa NE 2.6 km/h 5.0 km/h 82% 0.0 mm 0 W/m2
02:29 11.0 °C 8.2 °C 1004.6 hPa ENE 2.6 km/h 5.0 km/h 83% 0.0 mm 0 W/m2
02:34 10.8 °C 8.4 °C 1004.6 hPa NE 1.1 km/h 5.0 km/h 85% 0.0 mm 0 W/m2
02:39 10.6 °C 8.2 °C 1004.3 hPa NE 2.6 km/h 5.0 km/h 85% 0.0 mm 0 W/m2
02:44 10.4 °C 8.2 °C 1004.3 hPa ENE 1.1 km/h 3.5 km/h 86% 0.0 mm 0 W/m2
02:49 10.2 °C 8.1 °C 1004.3 hPa ESE 2.6 km/h 3.5 km/h 87% 0.0 mm 0 W/m2
02:54 10.3 °C 8.2 °C 1004.3 hPa ESE 2.6 km/h 5.0 km/h 87% 0.0 mm 0 W/m2
02:59 10.4 °C 8.5 °C 1004.3 hPa Calm   5.0 km/h 88% 0.0 mm 0 W/m2
03:04 10.2 °C 8.1 °C 1003.9 hPa SW 1.1 km/h 5.0 km/h 87% 0.0 mm 0 W/m2
03:09 9.9 °C 8.0 °C 1003.9 hPa SW 1.1 km/h 5.0 km/h 88% 0.0 mm 0 W/m2
03:14 9.8 °C 7.9 °C 1003.6 hPa WSW 2.6 km/h 3.5 km/h 88% 0.0 mm 0 W/m2
03:19 9.7 °C 7.8 °C 1003.6 hPa NW 2.6 km/h 5.0 km/h 88% 0.0 mm 0 W/m2
03:24 9.4 °C 7.5 °C 1003.6 hPa NW 2.6 km/h 6.1 km/h 88% 0.0 mm 0 W/m2
03:29 9.2 °C 7.3 °C 1003.9 hPa WNW 1.1 km/h 6.1 km/h 88% 0.0 mm 0 W/m2
03:34 9.1 °C 7.4 °C 1003.9 hPa SSE 2.6 km/h 6.1 km/h 89% 0.0 mm 0 W/m2
03:39 9.1 °C 7.4 °C 1003.6 hPa ESE 2.6 km/h 6.1 km/h 89% 0.0 mm 0 W/m2
03:44 9.2 °C 7.7 °C 1003.6 hPa NE 3.5 km/h 6.1 km/h 90% 0.0 mm 0 W/m2
03:49 9.4 °C 7.8 °C 1003.9 hPa ENE 1.1 km/h 6.1 km/h 90% 0.0 mm 0 W/m2
03:54 9.4 °C 7.8 °C 1003.6 hPa ESE 2.6 km/h 5.0 km/h 90% 0.0 mm 0 W/m2
03:59 9.4 °C 7.8 °C 1003.6 hPa ENE 3.5 km/h 5.0 km/h 90% 0.0 mm 0 W/m2
04:04 9.2 °C 7.5 °C 1003.3 hPa Calm   6.1 km/h 89% 0.0 mm 0 W/m2
04:09 9.0 °C 7.3 °C 1003.6 hPa South 1.1 km/h 6.1 km/h 89% 0.0 mm 0 W/m2
04:14 8.9 °C 7.3 °C 1003.6 hPa SSE 3.5 km/h 5.0 km/h 90% 0.0 mm 0 W/m2
04:19 9.0 °C 7.3 °C 1003.3 hPa North 3.5 km/h 6.1 km/h 89% 0.0 mm 0 W/m2
04:24 8.8 °C 7.3 °C 1003.3 hPa NNW 2.6 km/h 6.1 km/h 90% 0.0 mm 0 W/m2
04:29 8.5 °C 6.9 °C 1003.6 hPa NW 3.5 km/h 6.1 km/h 90% 0.0 mm 0 W/m2
04:34 8.7 °C 7.2 °C 1003.6 hPa NW 3.5 km/h 6.1 km/h 90% 0.0 mm 0 W/m2
04:39 8.7 °C 7.2 °C 1003.6 hPa NW 6.1 km/h 8.7 km/h 90% 0.0 mm 0 W/m2
04:44 8.5 °C 6.9 °C 1003.6 hPa NW 1.1 km/h 8.7 km/h 90% 0.0 mm 0 W/m2
04:49 8.5 °C 6.9 °C 1003.6 hPa WNW 3.5 km/h 8.7 km/h 90% 0.0 mm 0 W/m2
04:54 8.2 °C 6.7 °C 1003.6 hPa Calm   5.0 km/h 90% 0.0 mm 0 W/m2
04:59 8.2 °C 6.7 °C 1003.6 hPa Calm   5.0 km/h 90% 0.0 mm 0 W/m2
05:04 8.5 °C 7.1 °C 1003.6 hPa NE 1.1 km/h 5.0 km/h 91% 0.0 mm 0 W/m2
05:09 8.4 °C 7.0 °C 1003.9 hPa South 3.5 km/h 6.1 km/h 91% 0.0 mm 0 W/m2
05:14 8.4 °C 7.0 °C 1003.6 hPa SW 6.1 km/h 7.2 km/h 91% 0.0 mm 0 W/m2
05:20 7.8 °C 6.4 °C 1003.6 hPa NW 2.6 km/h 7.2 km/h 91% 0.0 mm 0 W/m2
05:25 7.6 °C 6.2 °C 1003.9 hPa NW 1.1 km/h 7.2 km/h 91% 0.0 mm 0 W/m2
05:30 7.8 °C 6.6 °C 1003.6 hPa NW 6.1 km/h 7.2 km/h 92% 0.0 mm 0 W/m2
05:35 7.8 °C 6.6 °C 1003.9 hPa NW 2.6 km/h 7.2 km/h 92% 0.0 mm 0 W/m2
05:40 7.6 °C 6.4 °C 1003.6 hPa NW 1.1 km/h 7.2 km/h 92% 0.0 mm 0 W/m2
05:45 7.5 °C 6.3 °C 1003.6 hPa North 3.5 km/h 5.0 km/h 92% 0.0 mm 0 W/m2
05:50 7.4 °C 6.3 °C 1003.6 hPa NNW 3.5 km/h 6.1 km/h 93% 0.0 mm 0 W/m2
05:55 7.3 °C 6.2 °C 1003.6 hPa NNW 5.0 km/h 6.1 km/h 93% 0.0 mm 0 W/m2
06:00 7.0 °C 6.1 °C 1003.6 hPa NW 3.5 km/h 7.2 km/h 94% 0.0 mm 0 W/m2
06:05 7.2 °C 6.3 °C 1003.6 hPa NW 6.1 km/h 8.7 km/h 94% 0.0 mm 0 W/m2
06:10 7.3 °C 6.6 °C 1003.6 hPa NW 6.1 km/h 9.7 km/h 95% 0.0 mm 0 W/m2
06:15 7.4 °C 6.8 °C 1003.6 hPa NW 7.2 km/h 11.1 km/h 96% 0.0 mm 0 W/m2
06:20 7.4 °C 6.8 °C 1003.6 hPa NW 3.5 km/h 11.1 km/h 96% 0.0 mm 0 W/m2
06:25 7.2 °C 6.6 °C 1003.6 hPa NW 3.5 km/h 8.7 km/h 96% 0.0 mm 0 W/m2
06:30 7.0 °C 6.4 °C 1003.6 hPa NNW 3.5 km/h 7.2 km/h 96% 0.0 mm 0 W/m2
06:35 7.0 °C 6.4 °C 1003.9 hPa NW 3.5 km/h 7.2 km/h 96% 0.0 mm 0 W/m2
06:40 7.0 °C 6.4 °C 1003.9 hPa NW 7.2 km/h 9.7 km/h 96% 0.0 mm 0 W/m2
06:45 7.1 °C 6.5 °C 1003.9 hPa NW 7.2 km/h 11.1 km/h 96% 0.0 mm 0 W/m2
06:50 7.2 °C 6.8 °C 1003.9 hPa NW 6.1 km/h 11.1 km/h 97% 0.0 mm 0 W/m2
06:55 7.2 °C 6.8 °C 1003.9 hPa NW 6.1 km/h 11.1 km/h 97% 0.0 mm 0 W/m2
07:00 7.3 °C 6.8 °C 1003.6 hPa NW 7.2 km/h 13.4 km/h 97% 0.0 mm 1 W/m2
07:05 7.2 °C 6.8 °C 1003.6 hPa NW 3.5 km/h 13.4 km/h 97% 0.0 mm 4 W/m2
07:10 7.1 °C 6.7 °C 1003.9 hPa NW 5.0 km/h 11.1 km/h 97% 0.0 mm 7 W/m2
07:15 7.1 °C 6.7 °C 1003.9 hPa NW 8.7 km/h 11.1 km/h 97% 0.0 mm 20 W/m2
07:20 7.3 °C 6.8 °C 1003.9 hPa WNW 6.1 km/h 11.1 km/h 97% 0.0 mm 50 W/m2
07:26 7.5 °C 7.1 °C 1003.9 hPa NW 6.1 km/h 11.1 km/h 97% 0.0 mm 66 W/m2
07:31 7.6 °C 7.2 °C 1003.9 hPa NW 8.7 km/h 11.1 km/h 97% 0.0 mm 79 W/m2
07:37 7.7 °C 7.1 °C 1003.9 hPa NW 6.1 km/h 9.7 km/h 96% 0.0 mm 91 W/m2
07:42 7.9 °C 7.2 °C 1003.9 hPa NW 6.1 km/h 9.7 km/h 95% 0.0 mm 102 W/m2
07:47 8.1 °C 7.2 °C 1003.9 hPa NW 6.1 km/h 9.7 km/h 94% 0.0 mm 110 W/m2
07:52 8.3 °C 7.2 °C 1003.9 hPa NW 6.1 km/h 9.7 km/h 93% 0.0 mm 119 W/m2
07:57 8.3 °C 7.1 °C 1003.9 hPa NW 7.2 km/h 12.2 km/h 92% 0.0 mm 126 W/m2
08:02 8.5 °C 7.1 °C 1003.9 hPa NW 8.7 km/h 13.4 km/h 91% 0.0 mm 138 W/m2
08:07 8.6 °C 7.1 °C 1003.9 hPa NW 8.7 km/h 13.4 km/h 90% 0.0 mm 147 W/m2
08:12 9.0 °C 7.3 °C 1003.9 hPa NW 11.1 km/h 15.8 km/h 89% 0.0 mm 156 W/m2
08:17 9.3 °C 7.4 °C 1003.9 hPa NW 11.1 km/h 18.3 km/h 88% 0.0 mm 163 W/m2
08:22 9.6 °C 7.6 °C 1003.9 hPa NNW 7.2 km/h 18.3 km/h 87% 0.0 mm 169 W/m2
08:27 10.0 °C 7.6 °C 1003.9 hPa North 7.2 km/h 18.3 km/h 85% 0.0 mm 181 W/m2
08:32 10.2 °C 7.6 °C 1003.6 hPa North 9.7 km/h 14.8 km/h 84% 0.0 mm 193 W/m2
08:37 10.4 °C 7.7 °C 1003.6 hPa NNW 6.1 km/h 14.8 km/h 83% 0.0 mm 201 W/m2
08:42 10.7 °C 7.6 °C 1003.9 hPa NNW 11.1 km/h 15.8 km/h 81% 0.0 mm 217 W/m2
08:47 10.8 °C 7.1 °C 1003.9 hPa North 11.1 km/h 18.3 km/h 78% 0.0 mm 231 W/m2
08:52 11.2 °C 6.9 °C 1003.6 hPa North 11.1 km/h 18.3 km/h 75% 0.0 mm 243 W/m2
08:57 11.4 °C 7.1 °C 1003.9 hPa North 7.2 km/h 18.3 km/h 75% 0.0 mm 251 W/m2
09:02 11.6 °C 7.1 °C 1003.6 hPa NNE 9.7 km/h 18.3 km/h 74% 0.0 mm 264 W/m2
09:07 11.7 °C 7.0 °C 1003.3 hPa NNW 13.4 km/h 19.5 km/h 73% 0.0 mm 272 W/m2
09:12 12.0 °C 6.9 °C 1003.3 hPa NNW 11.1 km/h 19.5 km/h 71% 0.0 mm 280 W/m2
09:17 12.1 °C 7.0 °C 1003.6 hPa North 11.1 km/h 18.3 km/h 71% 0.0 mm 285 W/m2
09:22 12.2 °C 7.1 °C 1003.6 hPa NNW 13.4 km/h 19.5 km/h 71% 0.0 mm 291 W/m2
09:27 12.5 °C 7.4 °C 1003.6 hPa NNW 8.7 km/h 19.5 km/h 71% 0.0 mm 296 W/m2
09:32 12.9 °C 7.3 °C 1003.6 hPa North 9.7 km/h 18.3 km/h 69% 0.0 mm 299 W/m2
09:37 13.0 °C 7.0 °C 1003.3 hPa NW 9.7 km/h 17.2 km/h 67% 0.0 mm 299 W/m2
09:42 13.2 °C 7.2 °C 1003.3 hPa NNW 11.1 km/h 17.2 km/h 67% 0.0 mm 255 W/m2
09:46 13.5 °C 7.5 °C 1003.3 hPa North 7.2 km/h 17.2 km/h 67% 0.0 mm 190 W/m2
09:51 13.7 °C 7.4 °C 1003.3 hPa North 9.7 km/h 14.8 km/h 66% 0.0 mm 68 W/m2
09:56 13.8 °C 7.6 °C 1003.3 hPa North 8.7 km/h 18.3 km/h 66% 0.0 mm 57 W/m2
10:01 14.0 °C 7.3 °C 1002.9 hPa North 7.2 km/h 18.3 km/h 64% 0.0 mm 52 W/m2
10:06 14.5 °C 7.8 °C 1002.9 hPa North 9.7 km/h 15.8 km/h 64% 0.0 mm 50 W/m2
10:11 14.7 °C 7.9 °C 1002.9 hPa NNE 7.2 km/h 14.8 km/h 64% 0.0 mm 49 W/m2
10:16 15.0 °C 7.8 °C 1002.9 hPa North 5.0 km/h 14.8 km/h 62% 0.0 mm 49 W/m2
10:21 15.2 °C 7.7 °C 1002.6 hPa NNW 8.7 km/h 15.8 km/h 61% 0.0 mm 49 W/m2
10:26 15.4 °C 7.4 °C 1002.6 hPa NNE 6.1 km/h 15.8 km/h 59% 0.0 mm 53 W/m2
10:31 15.8 °C 7.3 °C 1002.6 hPa NNE 8.7 km/h 14.8 km/h 57% 0.0 mm 57 W/m2
10:36 15.9 °C 7.2 °C 1002.6 hPa NNW 7.2 km/h 15.8 km/h 56% 0.0 mm 156 W/m2
10:41 15.8 °C 7.3 °C 1002.6 hPa NW 9.7 km/h 15.8 km/h 57% 0.0 mm 253 W/m2
10:46 16.0 °C 7.2 °C 1002.6 hPa North 5.0 km/h 17.2 km/h 56% 0.0 mm 82 W/m2
10:51 16.3 °C 7.2 °C 1002.6 hPa NNW 8.7 km/h 17.2 km/h 55% 0.0 mm 314 W/m2
10:56 16.3 °C 7.2 °C 1002.3 hPa NNW 9.7 km/h 14.8 km/h 55% 0.0 mm 327 W/m2
11:01 16.3 °C 7.2 °C 1002.3 hPa North 8.7 km/h 14.8 km/h 55% 0.0 mm 333 W/m2
11:06 16.6 °C 7.8 °C 1001.9 hPa North 7.2 km/h 14.8 km/h 56% 0.0 mm 334 W/m2
11:11 16.9 °C 7.8 °C 1002.3 hPa NNE 6.1 km/h 14.8 km/h 55% 0.0 mm 337 W/m2
11:16 17.1 °C 7.4 °C 1001.9 hPa North 7.2 km/h 13.4 km/h 53% 0.0 mm 350 W/m2
11:21 17.0 °C 7.3 °C 1001.9 hPa NNW 5.0 km/h 13.4 km/h 53% 0.0 mm 351 W/m2
11:26 17.3 °C 7.3 °C 1001.9 hPa NNW 6.1 km/h 13.4 km/h 52% 0.0 mm 354 W/m2
11:45 18.2 °C 6.7 °C 1001.6 hPa North 3.5 km/h 13.4 km/h 47% 0.0 mm 362 W/m2
11:50 18.8 °C 7.3 °C 1001.6 hPa North 1.1 km/h 13.4 km/h 47% 0.0 mm 365 W/m2
11:55 19.2 °C 6.7 °C 1001.2 hPa North 3.5 km/h 8.7 km/h 44% 0.0 mm 367 W/m2
12:00 19.3 °C 6.8 °C 1000.9 hPa North 3.5 km/h 8.7 km/h 44% 0.0 mm 367 W/m2
12:05 19.4 °C 6.8 °C 1000.9 hPa NNE 5.0 km/h 8.7 km/h 44% 0.0 mm 366 W/m2
12:10 19.9 °C 5.9 °C 1000.6 hPa NE 2.6 km/h 8.7 km/h 40% 0.0 mm 366 W/m2
12:15 19.8 °C 4.3 °C 1000.6 hPa ESE 2.6 km/h 9.7 km/h 36% 0.0 mm 364 W/m2
12:20 20.1 °C 4.9 °C 1000.6 hPa ESE 2.6 km/h 9.7 km/h 37% 0.0 mm 364 W/m2
12:25 20.0 °C 7.4 °C 1000.2 hPa ESE 6.1 km/h 8.7 km/h 44% 0.0 mm 362 W/m2
12:30 19.6 °C 8.0 °C 999.9 hPa ESE 5.0 km/h 11.1 km/h 47% 0.0 mm 356 W/m2
12:35 19.5 °C 7.9 °C 1000.2 hPa SE 2.6 km/h 11.1 km/h 47% 0.0 mm 354 W/m2
12:40 19.4 °C 8.7 °C 999.9 hPa SE 7.2 km/h 12.2 km/h 50% 0.0 mm 350 W/m2
12:45 19.1 °C 7.6 °C 999.9 hPa SE 6.1 km/h 12.2 km/h 47% 0.0 mm 346 W/m2
12:50 19.8 °C 7.8 °C 999.9 hPa SSE 3.5 km/h 11.1 km/h 46% 0.0 mm 344 W/m2
12:55 19.9 °C 7.9 °C 999.9 hPa South 6.1 km/h 9.7 km/h 46% 0.0 mm 340 W/m2
13:00 19.6 °C 7.7 °C 999.9 hPa SSE 8.7 km/h 12.2 km/h 46% 0.0 mm 335 W/m2
13:05 20.1 °C 7.8 °C 999.5 hPa SSE 6.1 km/h 12.2 km/h 45% 0.0 mm 330 W/m2
13:10 19.5 °C 9.7 °C 999.5 hPa SE 3.5 km/h 12.2 km/h 53% 0.0 mm 325 W/m2
13:15 19.3 °C 9.2 °C 999.5 hPa SSE 7.2 km/h 12.2 km/h 52% 0.0 mm 319 W/m2
13:20 19.0 °C 7.8 °C 999.5 hPa SSE 7.2 km/h 12.2 km/h 48% 0.0 mm 313 W/m2
13:25 18.8 °C 8.7 °C 999.5 hPa SSE 8.7 km/h 14.8 km/h 52% 0.0 mm 300 W/m2
13:30 18.1 °C 9.9 °C 999.5 hPa SSE 3.5 km/h 14.8 km/h 59% 0.0 mm 298 W/m2
13:35 18.2 °C 9.3 °C 999.2 hPa SE 9.7 km/h 13.4 km/h 56% 0.0 mm 280 W/m2
13:40 18.1 °C 8.9 °C 999.2 hPa SSE 7.2 km/h 14.8 km/h 55% 0.0 mm 245 W/m2
13:45 17.5 °C 8.4 °C 999.2 hPa SSE 8.7 km/h 15.8 km/h 55% 0.0 mm 206 W/m2
13:50 17.2 °C 7.8 °C 999.2 hPa SE 8.7 km/h 18.3 km/h 54% 0.0 mm 269 W/m2
13:55 17.2 °C 7.8 °C 999.2 hPa SE 8.7 km/h 18.3 km/h 54% 0.0 mm 221 W/m2
14:00 17.3 °C 8.2 °C 998.9 hPa SE 3.5 km/h 18.3 km/h 55% 0.0 mm 210 W/m2
14:06 16.9 °C 7.0 °C 998.9 hPa ESE 7.2 km/h 18.3 km/h 52% 0.0 mm 196 W/m2
14:11 16.9 °C 6.4 °C 998.9 hPa ESE 12.2 km/h 18.3 km/h 50% 0.0 mm 140 W/m2
14:16 17.0 °C 5.3 °C 998.9 hPa ESE 8.7 km/h 15.8 km/h 46% 0.0 mm 89 W/m2
14:21 17.3 °C 5.9 °C 998.9 hPa ESE 5.0 km/h 15.8 km/h 47% 0.0 mm 55 W/m2
14:27 17.5 °C 5.4 °C 998.9 hPa SE 7.2 km/h 13.4 km/h 45% 0.0 mm 51 W/m2
14:32 17.5 °C 5.1 °C 998.9 hPa SE 7.2 km/h 14.8 km/h 44% 0.0 mm 51 W/m2
14:37 17.5 °C 6.7 °C 998.9 hPa SE 5.0 km/h 14.8 km/h 49% 0.0 mm 51 W/m2
14:42 17.7 °C 7.2 °C 998.9 hPa SE 5.0 km/h 13.4 km/h 50% 0.0 mm 51 W/m2
14:47 17.6 °C 7.6 °C 998.5 hPa SE 6.1 km/h 13.4 km/h 52% 0.0 mm 51 W/m2
14:52 17.7 °C 7.4 °C 998.5 hPa SE 7.2 km/h 13.4 km/h 51% 0.0 mm 51 W/m2
14:57 17.6 °C 6.4 °C 998.5 hPa SSE 5.0 km/h 11.1 km/h 48% 0.0 mm 52 W/m2
15:02 17.6 °C 6.2 °C 998.5 hPa SE 5.0 km/h 12.2 km/h 47% 0.0 mm 53 W/m2
15:07 17.4 °C 6.9 °C 998.2 hPa SE 3.5 km/h 12.2 km/h 50% 0.0 mm 54 W/m2
15:19 17.9 °C 7.9 °C 998.2 hPa ESE 2.6 km/h 9.7 km/h 52% 0.0 mm 75 W/m2
15:20 18.2 °C 8.2 °C 998.5 hPa SE 5.0 km/h 9.7 km/h 52% 0.0 mm 84 W/m2
15:24 18.7 °C 8.9 °C 998.2 hPa SE 8.7 km/h 9.7 km/h 53% 0.0 mm 139 W/m2
15:26 18.6 °C 8.0 °C 998.2 hPa SE 3.5 km/h 9.7 km/h 50% 0.0 mm 153 W/m2
15:31 18.3 °C 7.7 °C 998.2 hPa SE 5.0 km/h 9.7 km/h 50% 0.0 mm 147 W/m2
15:34 18.1 °C 7.8 °C 998.2 hPa SSE 6.1 km/h 9.7 km/h 51% 0.0 mm 143 W/m2
15:40 18.0 °C 7.7 °C 997.9 hPa South 7.2 km/h 12.2 km/h 51% 0.0 mm 131 W/m2
15:45 18.1 °C 8.1 °C 998.2 hPa SSE 1.1 km/h 12.2 km/h 52% 0.0 mm 122 W/m2
15:50 18.5 °C 7.9 °C 997.9 hPa SSE 2.6 km/h 8.7 km/h 50% 0.0 mm 114 W/m2
15:53 18.3 °C 7.7 °C 997.9 hPa South 3.5 km/h 8.7 km/h 50% 0.0 mm 109 W/m2
15:58 18.6 °C 8.6 °C 997.9 hPa South 5.0 km/h 9.7 km/h 52% 0.0 mm 101 W/m2
15:59 18.6 °C 8.6 °C 997.9 hPa South 3.5 km/h 9.7 km/h 52% 0.0 mm 99 W/m2
16:04 18.5 °C 9.0 °C 997.9 hPa SSE 5.0 km/h 9.7 km/h 54% 0.0 mm 90 W/m2
16:09 18.2 °C 9.3 °C 997.9 hPa South 2.6 km/h 8.7 km/h 56% 0.0 mm 82 W/m2
16:14 18.7 °C 10.0 °C 997.9 hPa South 5.0 km/h 8.7 km/h 57% 0.0 mm 72 W/m2
16:19 18.0 °C 10.1 °C 997.9 hPa South 7.2 km/h 9.7 km/h 60% 0.0 mm 65 W/m2
16:24 17.0 °C 10.2 °C 997.5 hPa South 6.1 km/h 9.7 km/h 64% 0.0 mm 60 W/m2
16:29 16.7 °C 10.8 °C 997.5 hPa South 3.5 km/h 9.7 km/h 68% 0.0 mm 59 W/m2
16:34 16.9 °C 11.2 °C 997.5 hPa SSW 6.1 km/h 9.7 km/h 69% 0.0 mm 59 W/m2
16:39 16.7 °C 11.2 °C 997.5 hPa SSW 5.0 km/h 9.7 km/h 70% 0.0 mm 58 W/m2
16:44 16.6 °C 11.3 °C 997.5 hPa SSW 3.5 km/h 9.7 km/h 71% 0.0 mm 50 W/m2
16:49 16.9 °C 11.6 °C 997.5 hPa South 2.6 km/h 9.7 km/h 71% 0.0 mm 43 W/m2
16:54 17.1 °C 10.9 °C 997.5 hPa SSE 3.5 km/h 9.7 km/h 67% 0.0 mm 36 W/m2
16:59 16.9 °C 10.7 °C 997.2 hPa SSE 7.2 km/h 9.7 km/h 67% 0.0 mm 31 W/m2
17:04 16.7 °C 10.3 °C 997.5 hPa SE 1.1 km/h 9.7 km/h 66% 0.0 mm 27 W/m2
17:09 16.7 °C 10.3 °C 997.5 hPa ESE 1.1 km/h 8.7 km/h 66% 0.0 mm 22 W/m2
17:14 16.7 °C 10.3 °C 997.5 hPa East 2.6 km/h 5.0 km/h 66% 0.0 mm 17 W/m2
17:19 16.3 °C 9.9 °C 997.5 hPa NE 3.5 km/h 6.1 km/h 66% 0.0 mm 10 W/m2
17:24 15.4 °C 9.6 °C 997.5 hPa Calm   6.1 km/h 68% 0.0 mm 5 W/m2
17:29 14.6 °C 9.6 °C 997.5 hPa North 1.1 km/h 6.1 km/h 72% 0.0 mm 2 W/m2
17:34 14.0 °C 9.4 °C 997.9 hPa North 1.1 km/h 3.5 km/h 74% 0.0 mm 0 W/m2
17:39 13.6 °C 9.4 °C 997.5 hPa Calm   3.5 km/h 76% 0.0 mm 0 W/m2
17:44 13.1 °C 9.3 °C 997.5 hPa Calm   3.5 km/h 78% 0.0 mm 0 W/m2
17:49 12.9 °C 9.3 °C 997.5 hPa North 2.6 km/h 5.0 km/h 79% 0.0 mm 0 W/m2
17:54 12.5 °C 9.3 °C 997.9 hPa NNW 2.6 km/h 5.0 km/h 81% 0.0 mm 0 W/m2
17:59 12.1 °C 9.1 °C 997.9 hPa NW 2.6 km/h 6.1 km/h 82% 0.0 mm 0 W/m2
18:04 11.8 °C 9.2 °C 997.9 hPa NNW 3.5 km/h 6.1 km/h 84% 0.0 mm 0 W/m2
18:09 11.6 °C 9.2 °C 997.9 hPa NNW 3.5 km/h 7.2 km/h 85% 0.0 mm 0 W/m2
18:14 11.3 °C 9.1 °C 997.5 hPa North 2.6 km/h 7.2 km/h 86% 0.0 mm 0 W/m2
18:19 11.1 °C 8.8 °C 997.9 hPa North 2.6 km/h 5.0 km/h 86% 0.0 mm 0 W/m2
18:24 11.0 °C 8.9 °C 997.5 hPa North 3.5 km/h 6.1 km/h 87% 0.0 mm 0 W/m2
18:29 10.8 °C 8.9 °C 997.5 hPa NNE 3.5 km/h 6.1 km/h 88% 0.0 mm 0 W/m2
18:34 10.7 °C 8.8 °C 997.2 hPa North 2.6 km/h 6.1 km/h 88% 0.0 mm 0 W/m2
18:39 10.6 °C 8.7 °C 997.5 hPa North 1.1 km/h 5.0 km/h 88% 0.0 mm 0 W/m2
18:44 10.6 °C 8.6 °C 997.5 hPa NW 1.1 km/h 3.5 km/h 87% 0.0 mm 0 W/m2
18:49 10.4 °C 8.3 °C 997.5 hPa NW 1.1 km/h 3.5 km/h 87% 0.0 mm 0 W/m2
18:54 10.2 °C 7.9 °C 997.2 hPa NNW 2.6 km/h 6.1 km/h 86% 0.0 mm 0 W/m2
18:59 10.1 °C 8.1 °C 997.5 hPa NNW 5.0 km/h 6.1 km/h 87% 0.0 mm 0 W/m2
19:04 9.9 °C 7.8 °C 997.5 hPa NW 5.0 km/h 7.2 km/h 87% 0.0 mm 0 W/m2
19:09 9.7 °C 7.7 °C 997.5 hPa NW 3.5 km/h 7.2 km/h 87% 0.0 mm 0 W/m2
19:15 9.6 °C 7.7 °C 997.9 hPa NW 5.0 km/h 6.1 km/h 88% 0.0 mm 0 W/m2
19:20 9.5 °C 7.6 °C 997.5 hPa NW 6.1 km/h 9.7 km/h 88% 0.0 mm 0 W/m2
19:25 9.4 °C 7.5 °C 997.9 hPa NW 5.0 km/h 9.7 km/h 88% 0.0 mm 0 W/m2
19:30 9.5 °C 7.6 °C 997.9 hPa NW 3.5 km/h 8.7 km/h 88% 0.0 mm 0 W/m2
19:35 9.5 °C 7.6 °C 997.5 hPa NW 2.6 km/h 7.2 km/h 88% 0.0 mm 0 W/m2
19:40 9.4 °C 7.5 °C 997.9 hPa NNE 1.1 km/h 6.1 km/h 88% 0.0 mm 0 W/m2
19:45 9.4 °C 7.5 °C 997.9 hPa NE 2.6 km/h 7.2 km/h 88% 0.0 mm 0 W/m2
19:50 9.5 °C 7.6 °C 997.9 hPa NNE 3.5 km/h 7.2 km/h 88% 0.0 mm 0 W/m2
19:55 9.6 °C 7.7 °C 997.5 hPa NNW 6.1 km/h 8.7 km/h 88% 0.0 mm 0 W/m2
20:00 9.8 °C 7.9 °C 997.5 hPa NW 5.0 km/h 8.7 km/h 88% 0.0 mm 0 W/m2
20:05 9.8 °C 7.7 °C 997.5 hPa NW 3.5 km/h 8.7 km/h 87% 0.0 mm 0 W/m2
20:10 9.7 °C 7.7 °C 997.5 hPa WNW 2.6 km/h 7.2 km/h 87% 0.0 mm 0 W/m2
20:15 9.6 °C 7.6 °C 997.5 hPa WNW 3.5 km/h 5.0 km/h 87% 0.0 mm 0 W/m2
20:20 9.4 °C 7.3 °C 997.5 hPa NE 1.1 km/h 5.0 km/h 87% 0.0 mm 0 W/m2
20:25 9.3 °C 7.2 °C 997.5 hPa NNE 5.0 km/h 6.1 km/h 87% 0.0 mm 0 W/m2
20:30 9.3 °C 7.2 °C 997.5 hPa NNW 6.1 km/h 7.2 km/h 87% 0.0 mm 0 W/m2
20:35 9.4 °C 7.3 °C 997.2 hPa NW 3.5 km/h 7.2 km/h 87% 0.0 mm 0 W/m2
20:40 9.4 °C 7.3 °C 997.2 hPa NW 2.6 km/h 7.2 km/h 87% 0.0 mm 0 W/m2
20:45 9.4 °C 7.3 °C 997.2 hPa NNW 3.5 km/h 6.1 km/h 87% 0.0 mm 0 W/m2
20:50 9.3 °C 7.2 °C 997.2 hPa NNE 3.5 km/h 6.1 km/h 87% 0.0 mm 0 W/m2
20:55 9.1 °C 7.1 °C 997.2 hPa North 3.5 km/h 6.1 km/h 87% 0.0 mm 0 W/m2
21:00 8.9 °C 7.0 °C 997.2 hPa North 2.6 km/h 6.1 km/h 88% 0.0 mm 0 W/m2
21:05 8.8 °C 6.9 °C 997.2 hPa North 2.6 km/h 6.1 km/h 88% 0.0 mm 0 W/m2
21:10 8.8 °C 7.1 °C 997.2 hPa North 2.6 km/h 5.0 km/h 89% 0.0 mm 0 W/m2
21:16 8.7 °C 7.0 °C 996.8 hPa North 2.6 km/h 5.0 km/h 89% 0.0 mm 0 W/m2
21:21 8.7 °C 7.0 °C 996.8 hPa NNW 3.5 km/h 5.0 km/h 89% 0.0 mm 0 W/m2
21:26 8.9 °C 7.2 °C 996.8 hPa NW 2.6 km/h 7.2 km/h 89% 0.0 mm 0 W/m2
21:31 8.9 °C 7.2 °C 996.8 hPa NW 3.5 km/h 7.2 km/h 89% 0.0 mm 0 W/m2
21:36 8.9 °C 7.0 °C 996.8 hPa NW 6.1 km/h 8.7 km/h 88% 0.0 mm 0 W/m2
21:41 9.0 °C 6.9 °C 996.8 hPa NW 6.1 km/h 9.7 km/h 87% 0.0 mm 0 W/m2
21:46 9.1 °C 7.1 °C 996.8 hPa NW 6.1 km/h 9.7 km/h 87% 0.0 mm 0 W/m2
21:51 9.2 °C 7.2 °C 996.8 hPa NNW 8.7 km/h 12.2 km/h 87% 0.0 mm 0 W/m2
21:56 9.3 °C 7.1 °C 996.8 hPa NNW 7.2 km/h 12.2 km/h 86% 0.0 mm 0 W/m2
22:01 9.3 °C 7.1 °C 996.5 hPa North 5.0 km/h 12.2 km/h 86% 0.0 mm 0 W/m2
22:06 9.4 °C 7.2 °C 996.5 hPa North 6.1 km/h 11.1 km/h 86% 0.0 mm 0 W/m2
22:11 9.6 °C 7.2 °C 996.5 hPa NNW 5.0 km/h 9.7 km/h 85% 0.0 mm 0 W/m2
22:16 9.6 °C 7.1 °C 996.2 hPa NNW 6.1 km/h 9.7 km/h 84% 0.0 mm 0 W/m2
22:32 9.5 °C 6.9 °C 996.5 hPa NNW 5.0 km/h 8.7 km/h 84% 0.0 mm 0 W/m2
Northern Hawkes Bay. New Zealand Historic Data
Compliments of Weather Underground - 2.25 mb